createdAt,value
2019-03-16T00:01:56.565Z,0.40
2019-03-16T00:04:16.312Z,0.40
2019-03-16T00:06:46.212Z,0.40
2019-03-16T00:09:16.117Z,0.60
2019-03-16T00:11:46.422Z,0.40
2019-03-16T00:14:16.289Z,0.23
2019-03-16T00:16:46.190Z,0.30
2019-03-16T00:19:16.125Z,0.20
2019-03-16T00:21:46.014Z,0.40
2019-03-16T00:24:15.923Z,0.33
2019-03-16T00:26:46.326Z,0.50
2019-03-16T00:29:16.225Z,0.40
2019-03-16T00:31:46.153Z,0.37
2019-03-16T00:34:16.094Z,0.30
2019-03-16T00:36:45.976Z,0.30
2019-03-16T00:39:15.880Z,0.30
2019-03-16T00:41:46.243Z,0.23
2019-03-16T00:44:16.154Z,0.30
2019-03-16T00:46:46.085Z,0.30
2019-03-16T00:49:16.050Z,0.40
2019-03-16T00:51:45.971Z,0.40
2019-03-16T00:54:16.191Z,0.30
2019-03-16T00:56:46.537Z,0.30
2019-03-16T00:59:16.468Z,0.50
2019-03-16T01:01:46.385Z,0.40
2019-03-16T01:04:16.291Z,0.40
2019-03-16T01:06:46.202Z,0.40
2019-03-16T01:09:16.114Z,0.50
2019-03-16T01:11:46.058Z,0.50
2019-03-16T01:14:15.969Z,0.30
2019-03-16T01:16:45.900Z,0.37
2019-03-16T01:19:15.817Z,0.37
2019-03-16T01:21:45.726Z,0.60
2019-03-16T01:24:15.635Z,0.50
2019-03-16T01:26:45.610Z,0.60
2019-03-16T01:29:15.837Z,0.50
2019-03-16T01:31:45.754Z,0.50
2019-03-16T01:34:15.697Z,0.60
2019-03-16T01:36:45.575Z,0.47
2019-03-16T01:39:15.470Z,0.63
2019-03-16T01:41:45.440Z,0.50
2019-03-16T01:44:15.799Z,0.60
2019-03-16T01:46:45.734Z,0.80
2019-03-16T01:49:15.699Z,0.40
2019-03-16T01:51:45.597Z,0.53
2019-03-16T01:54:15.503Z,0.50
2019-03-16T01:56:45.568Z,0.50
2019-03-16T01:59:16.069Z,0.57
2019-03-16T02:01:49.102Z,0.57
2019-03-16T02:04:17.634Z,0.63
2019-03-16T02:06:47.555Z,0.40
2019-03-16T02:09:17.450Z,0.60
2019-03-16T02:11:47.382Z,0.40
2019-03-16T02:14:17.563Z,0.40
2019-03-16T02:16:47.599Z,0.33
2019-03-16T02:19:17.534Z,0.30
2019-03-16T02:21:47.491Z,0.40
2019-03-16T02:24:17.575Z,0.33
2019-03-16T02:26:47.528Z,0.30
2019-03-16T02:29:18.373Z,0.20
2019-03-16T02:31:48.284Z,0.40
2019-03-16T02:34:18.232Z,0.30
2019-03-16T02:36:53.100Z,0.30
2019-03-16T02:39:23.095Z,0.30
2019-03-16T02:41:53.008Z,0.30
2019-03-16T02:44:22.905Z,0.30
2019-03-16T02:46:52.859Z,0.33
2019-03-16T02:49:22.804Z,0.30
2019-03-16T02:51:52.721Z,0.40
2019-03-16T02:54:22.657Z,0.47
2019-03-16T02:56:52.561Z,0.40
2019-03-16T02:59:23.251Z,0.50
2019-03-16T03:01:53.183Z,0.40
2019-03-16T03:04:23.086Z,0.30
2019-03-16T03:06:53.003Z,0.30
2019-03-16T03:09:22.999Z,0.43
2019-03-16T03:11:52.915Z,0.30
2019-03-16T03:14:23.096Z,0.40
2019-03-16T03:16:53.039Z,0.30
2019-03-16T03:19:23.043Z,0.40
2019-03-16T03:21:52.919Z,0.40
2019-03-16T03:24:22.895Z,0.40
2019-03-16T03:26:52.840Z,0.40
2019-03-16T03:29:23.144Z,0.50
2019-03-16T03:31:53.115Z,0.40
2019-03-16T03:34:22.996Z,0.60
2019-03-16T03:36:52.933Z,0.47
2019-03-16T03:39:22.902Z,0.50
2019-03-16T03:41:52.814Z,0.63
2019-03-16T03:44:22.882Z,0.60
2019-03-16T03:46:52.814Z,0.30
2019-03-16T03:49:22.696Z,0.40
2019-03-16T03:51:52.607Z,0.50
2019-03-16T03:54:22.578Z,0.40
2019-03-16T03:56:52.532Z,0.50
2019-03-16T03:59:22.512Z,0.50
2019-03-16T04:01:52.513Z,0.50
2019-03-16T04:04:22.531Z,0.43
2019-03-16T04:06:52.630Z,0.30
2019-03-16T04:09:22.693Z,0.60
2019-03-16T04:11:52.616Z,0.50
2019-03-16T04:14:22.518Z,0.50
2019-03-16T04:16:52.827Z,0.40
2019-03-16T04:19:22.720Z,0.43
2019-03-16T04:21:52.610Z,0.40
2019-03-16T04:24:22.539Z,0.60
2019-03-16T04:26:52.457Z,0.50
2019-03-16T04:29:22.381Z,0.57
2019-03-16T04:31:52.695Z,0.50
2019-03-16T04:34:28.951Z,0.83
2019-03-16T04:36:54.256Z,0.70
2019-03-16T04:39:24.199Z,0.60
2019-03-16T04:41:54.095Z,0.70
2019-03-16T04:44:24.311Z,0.90
2019-03-16T04:46:54.646Z,0.83
2019-03-16T04:49:24.688Z,0.80
2019-03-16T04:51:54.829Z,0.93
2019-03-16T04:54:24.797Z,0.90
2019-03-16T04:56:54.718Z,1.10
2019-03-16T04:59:24.623Z,0.97
2019-03-16T05:01:54.776Z,1.10
2019-03-16T05:04:24.679Z,1.50
2019-03-16T05:06:54.657Z,1.50
2019-03-16T05:09:24.588Z,1.20
2019-03-16T05:11:54.516Z,1.30
2019-03-16T05:14:24.437Z,1.40
2019-03-16T05:16:54.839Z,1.40
2019-03-16T05:19:24.770Z,1.23
2019-03-16T05:21:54.687Z,1.13
2019-03-16T05:24:24.654Z,1.13
2019-03-16T05:26:54.543Z,1.27
2019-03-16T05:29:24.455Z,1.20
2019-03-16T05:31:54.404Z,1.20
2019-03-16T05:34:24.322Z,0.97
2019-03-16T05:36:56.067Z,1.10
2019-03-16T05:39:25.845Z,1.30
2019-03-16T05:41:55.732Z,1.10
2019-03-16T05:44:25.672Z,1.53
2019-03-16T05:46:55.675Z,1.23
2019-03-16T05:49:25.674Z,1.37
2019-03-16T05:51:55.618Z,1.40
2019-03-16T05:54:25.527Z,1.33
2019-03-16T05:56:55.427Z,0.90
2019-03-16T05:59:25.478Z,1.27
2019-03-16T06:01:55.433Z,1.20
2019-03-16T06:04:25.718Z,1.00
2019-03-16T06:06:55.624Z,1.03
2019-03-16T06:09:25.572Z,1.20
2019-03-16T06:11:55.470Z,0.87
2019-03-16T06:14:25.385Z,1.30
2019-03-16T06:16:55.736Z,1.00
2019-03-16T06:19:25.886Z,1.20
2019-03-16T06:21:55.765Z,1.20
2019-03-16T06:24:28.009Z,1.10
2019-03-16T06:26:57.296Z,1.20
2019-03-16T06:29:27.216Z,1.13
2019-03-16T06:31:57.206Z,1.10
2019-03-16T06:34:27.415Z,1.30
2019-03-16T06:36:57.311Z,1.00
2019-03-16T06:39:27.270Z,1.00
2019-03-16T06:41:57.170Z,1.00
2019-03-16T06:44:27.053Z,0.83
2019-03-16T06:46:56.989Z,0.80
2019-03-16T06:49:27.316Z,0.77
2019-03-16T06:51:57.227Z,1.00
2019-03-16T06:54:27.178Z,0.90
2019-03-16T06:56:57.091Z,1.10
2019-03-16T06:59:27.272Z,1.00
2019-03-16T07:01:57.231Z,1.30
2019-03-16T07:04:27.303Z,0.67
2019-03-16T07:06:57.232Z,1.10
2019-03-16T07:09:27.168Z,0.93
2019-03-16T07:11:57.093Z,0.93
2019-03-16T07:14:27.058Z,0.80
2019-03-16T07:17:02.350Z,0.73
2019-03-16T07:19:29.273Z,0.80
2019-03-16T07:21:59.182Z,1.00
2019-03-16T07:24:29.228Z,0.90
2019-03-16T07:26:59.112Z,0.80
2019-03-16T07:29:29.335Z,0.80
2019-03-16T07:31:59.305Z,0.70
2019-03-16T07:34:29.467Z,0.80
2019-03-16T07:36:59.366Z,0.60
2019-03-16T07:39:29.653Z,0.60
2019-03-16T07:42:00.705Z,0.47
2019-03-16T07:44:31.274Z,0.60
2019-03-16T07:47:01.214Z,0.50
2019-03-16T07:49:31.342Z,0.60
2019-03-16T07:52:01.288Z,0.70
2019-03-16T07:54:31.491Z,0.70
2019-03-16T07:57:01.464Z,0.73
2019-03-16T07:59:31.337Z,0.90
2019-03-16T08:02:01.259Z,0.70
2019-03-16T08:04:31.285Z,0.80
2019-03-16T08:07:01.207Z,1.00
2019-03-16T08:09:31.146Z,0.80
2019-03-16T08:12:01.251Z,0.67
2019-03-16T08:14:31.166Z,0.90
2019-03-16T08:17:01.466Z,0.70
2019-03-16T08:19:31.897Z,0.80
2019-03-16T08:22:01.802Z,0.70
2019-03-16T08:24:31.752Z,0.70
2019-03-16T08:27:01.761Z,0.77
2019-03-16T08:29:31.643Z,0.70
2019-03-16T08:32:01.614Z,0.70
2019-03-16T08:34:31.551Z,0.73
2019-03-16T08:37:01.451Z,0.80
2019-03-16T08:39:31.415Z,0.70
2019-03-16T08:42:01.351Z,0.70
2019-03-16T08:44:31.248Z,0.70
2019-03-16T08:47:01.208Z,0.60
2019-03-16T08:49:31.127Z,0.80
2019-03-16T08:52:01.163Z,0.83
2019-03-16T08:54:31.114Z,0.90
2019-03-16T08:57:00.992Z,0.80
2019-03-16T08:59:30.884Z,0.53
2019-03-16T09:02:00.814Z,0.70
2019-03-16T09:04:30.728Z,0.90
2019-03-16T09:07:00.640Z,0.80
2019-03-16T09:09:30.817Z,0.50
2019-03-16T09:12:00.710Z,0.90
2019-03-16T09:14:30.616Z,0.50
2019-03-16T09:17:00.570Z,0.50
2019-03-16T09:19:30.469Z,0.47
2019-03-16T09:22:00.676Z,0.50
2019-03-16T09:24:31.322Z,0.50
2019-03-16T09:27:01.262Z,0.63
2019-03-16T09:29:31.155Z,0.50
2019-03-16T09:32:01.212Z,0.50
2019-03-16T09:34:31.161Z,0.67
2019-03-16T09:37:01.102Z,1.00
2019-03-16T09:39:31.062Z,0.60
2019-03-16T09:42:00.980Z,0.60
2019-03-16T09:44:30.907Z,0.40
2019-03-16T09:47:00.888Z,0.80
2019-03-16T09:49:30.782Z,0.50
2019-03-16T09:52:00.723Z,0.40
2019-03-16T09:54:30.685Z,0.50
2019-03-16T09:57:01.830Z,0.70
2019-03-16T09:59:32.037Z,0.70
2019-03-16T10:02:02.007Z,0.50
2019-03-16T10:04:31.904Z,0.30
2019-03-16T10:07:01.802Z,0.50
2019-03-16T10:09:31.771Z,0.20
2019-03-16T10:12:01.677Z,0.70
2019-03-16T10:14:31.608Z,0.30
2019-03-16T10:17:01.639Z,0.47
2019-03-16T10:19:31.530Z,0.40
2019-03-16T10:22:01.872Z,0.63
2019-03-16T10:24:31.827Z,0.47
2019-03-16T10:27:01.722Z,0.30
2019-03-16T10:29:31.644Z,0.40
2019-03-16T10:32:01.586Z,0.40
2019-03-16T10:34:31.493Z,0.50
2019-03-16T10:37:01.800Z,0.30
2019-03-16T10:39:31.776Z,0.57
2019-03-16T10:42:01.675Z,0.60
2019-03-16T10:44:31.601Z,0.50
2019-03-16T10:47:01.564Z,0.30
2019-03-16T10:49:31.474Z,0.30
2019-03-16T10:52:01.718Z,0.30
2019-03-16T10:54:31.691Z,0.40
2019-03-16T10:57:04.267Z,0.40
2019-03-16T10:59:33.299Z,0.37
2019-03-16T11:02:03.279Z,0.50
2019-03-16T11:04:33.404Z,0.57
2019-03-16T11:07:03.395Z,0.10
2019-03-16T11:09:33.360Z,0.30
2019-03-16T11:12:03.238Z,0.40
2019-03-16T11:14:33.405Z,0.47
2019-03-16T11:17:03.454Z,0.50
2019-03-16T11:19:33.324Z,0.23
2019-03-16T11:22:03.921Z,0.40
2019-03-16T11:24:33.873Z,0.30
2019-03-16T11:27:03.799Z,0.30
2019-03-16T11:29:33.716Z,0.60
2019-03-16T11:32:03.738Z,0.30
2019-03-16T11:34:33.663Z,0.40
2019-03-16T11:37:04.011Z,0.30
2019-03-16T11:39:33.957Z,0.40
2019-03-16T11:42:03.847Z,0.90
2019-03-16T11:44:33.758Z,0.87
2019-03-16T11:47:03.747Z,0.50
2019-03-16T11:49:33.633Z,0.37
2019-03-16T11:52:03.862Z,0.37
2019-03-16T11:54:33.862Z,0.50
2019-03-16T11:57:03.827Z,0.40
2019-03-16T11:59:33.720Z,0.30
2019-03-16T12:02:05.586Z,0.40
2019-03-16T12:04:35.404Z,0.50
2019-03-16T12:07:05.407Z,0.50
2019-03-16T12:09:35.708Z,0.50
2019-03-16T12:12:05.777Z,0.50
2019-03-16T12:14:35.682Z,0.60
2019-03-16T12:17:05.647Z,0.87
2019-03-16T12:19:35.606Z,0.73
2019-03-16T12:22:05.535Z,0.87
2019-03-16T12:24:35.771Z,1.00
2019-03-16T12:27:05.762Z,1.10
2019-03-16T12:29:35.669Z,1.10
2019-03-16T12:32:05.586Z,1.10
2019-03-16T12:34:35.532Z,0.90
2019-03-16T12:37:05.772Z,1.00
2019-03-16T12:39:36.155Z,1.10
2019-03-16T12:42:06.182Z,1.13
2019-03-16T12:44:36.094Z,1.00
2019-03-16T12:47:06.029Z,1.30
2019-03-16T12:49:35.919Z,1.13
2019-03-16T12:52:05.806Z,1.30
2019-03-16T12:54:35.903Z,1.50
2019-03-16T12:57:05.829Z,1.20
2019-03-16T12:59:46.155Z,1.30
2019-03-16T13:02:07.316Z,1.10
2019-03-16T13:04:37.358Z,1.40
2019-03-16T13:07:07.335Z,1.30
2019-03-16T13:09:37.568Z,1.50
2019-03-16T13:12:07.468Z,1.20
2019-03-16T13:14:37.369Z,1.30
2019-03-16T13:17:07.299Z,1.17
2019-03-16T13:19:37.449Z,1.57
2019-03-16T13:22:07.386Z,1.50
2019-03-16T13:24:37.754Z,1.67
2019-03-16T13:27:07.639Z,1.30
2019-03-16T13:29:37.537Z,1.40
2019-03-16T13:32:07.484Z,1.47
2019-03-16T13:34:37.425Z,1.50
2019-03-16T13:37:07.338Z,1.40
2019-03-16T13:39:37.447Z,1.60
2019-03-16T13:42:07.348Z,1.10
2019-03-16T13:44:37.543Z,1.10
2019-03-16T13:47:07.504Z,1.20
2019-03-16T13:49:37.431Z,1.27
2019-03-16T13:52:07.347Z,1.10
2019-03-16T13:54:37.567Z,1.40
2019-03-16T13:57:07.484Z,1.30
2019-03-16T13:59:37.416Z,1.20
2019-03-16T14:02:08.657Z,1.10
2019-03-16T14:04:39.048Z,1.17
2019-03-16T14:07:08.981Z,1.00
2019-03-16T14:09:38.933Z,1.10
2019-03-16T14:12:09.442Z,1.20
2019-03-16T14:14:39.307Z,1.23
2019-03-16T14:17:09.270Z,1.17
2019-03-16T14:19:39.234Z,1.10
2019-03-16T14:22:09.106Z,1.40
2019-03-16T14:24:39.515Z,1.10
2019-03-16T14:27:09.734Z,1.23
2019-03-16T14:29:40.051Z,1.20
2019-03-16T14:32:10.191Z,1.20
2019-03-16T14:34:40.132Z,1.00
2019-03-16T14:37:10.014Z,1.10
2019-03-16T14:39:39.950Z,1.00
2019-03-16T14:42:10.630Z,1.00
2019-03-16T14:44:40.729Z,1.20
2019-03-16T14:47:11.090Z,1.23
2019-03-16T14:49:41.519Z,1.20
2019-03-16T14:52:11.529Z,3.50
2019-03-16T14:54:41.509Z,1.63
2019-03-16T14:57:11.760Z,1.00
2019-03-16T14:59:41.648Z,1.00
2019-03-16T15:02:11.668Z,1.00
2019-03-16T15:04:41.563Z,0.90
2019-03-16T15:07:11.442Z,1.07
2019-03-16T15:09:41.391Z,0.90
2019-03-16T15:12:11.653Z,0.83
2019-03-16T15:14:41.736Z,0.87
2019-03-16T15:17:12.032Z,1.10
2019-03-16T15:19:41.950Z,0.80
2019-03-16T15:22:12.232Z,0.80
2019-03-16T15:24:42.810Z,0.90
2019-03-16T15:27:15.686Z,1.00
2019-03-16T15:29:44.339Z,0.70
2019-03-16T15:32:14.357Z,0.73
2019-03-16T15:34:44.300Z,0.87
2019-03-16T15:37:14.210Z,0.70
2019-03-16T15:39:44.148Z,1.40
2019-03-16T15:42:14.386Z,1.10
2019-03-16T15:44:44.301Z,1.03
2019-03-16T15:47:14.239Z,1.00
2019-03-16T15:49:44.135Z,0.87
2019-03-16T15:52:14.131Z,0.93
2019-03-16T15:54:44.071Z,0.90
2019-03-16T15:57:14.277Z,1.00
2019-03-16T15:59:44.233Z,1.10
2019-03-16T16:02:14.316Z,1.50
2019-03-16T16:04:44.196Z,1.27
2019-03-16T16:07:14.135Z,1.93
2019-03-16T16:09:44.064Z,1.53
2019-03-16T16:12:14.393Z,2.10
2019-03-16T16:14:44.262Z,1.57
2019-03-16T16:17:14.192Z,1.00
2019-03-16T16:19:44.080Z,1.50
2019-03-16T16:22:16.846Z,1.47
2019-03-16T16:24:45.609Z,1.30
2019-03-16T16:27:15.919Z,1.00
2019-03-16T16:29:46.580Z,1.10
2019-03-16T16:32:16.610Z,1.20
2019-03-16T16:34:46.493Z,0.97
2019-03-16T16:37:16.413Z,0.80
2019-03-16T16:39:46.354Z,1.07
2019-03-16T16:42:16.424Z,1.03
2019-03-16T16:44:46.342Z,1.20
2019-03-16T16:47:16.335Z,1.07
2019-03-16T16:49:46.271Z,1.00
2019-03-16T16:52:16.123Z,0.77
2019-03-16T16:54:46.091Z,1.10
2019-03-16T16:57:16.084Z,1.00
2019-03-16T16:59:46.016Z,1.60
2019-03-16T17:02:15.966Z,1.20
2019-03-16T17:04:45.955Z,2.10
2019-03-16T17:07:15.970Z,1.80
2019-03-16T17:09:45.885Z,1.80
2019-03-16T17:12:15.809Z,1.77
2019-03-16T17:14:45.720Z,1.27
2019-03-16T17:17:15.659Z,1.80
2019-03-16T17:19:45.590Z,1.90
2019-03-16T17:22:15.528Z,1.73
2019-03-16T17:24:45.470Z,1.87
2019-03-16T17:27:15.367Z,1.40
2019-03-16T17:29:45.613Z,1.80
2019-03-16T17:32:15.567Z,1.67
2019-03-16T17:34:45.435Z,1.97
2019-03-16T17:37:15.454Z,2.63
2019-03-16T17:39:45.415Z,2.00
2019-03-16T17:42:15.302Z,2.20
2019-03-16T17:44:45.661Z,1.90
2019-03-16T17:47:15.648Z,3.30
2019-03-16T17:49:45.560Z,2.30
2019-03-16T17:52:15.489Z,1.60
2019-03-16T17:54:45.430Z,1.53
2019-03-16T17:57:15.327Z,1.53
2019-03-16T17:59:45.580Z,1.50
2019-03-16T18:02:15.524Z,1.60
2019-03-16T18:04:45.486Z,1.70
2019-03-16T18:07:15.387Z,1.70
2019-03-16T18:09:45.356Z,1.57
2019-03-16T18:12:15.219Z,1.40
2019-03-16T18:14:45.551Z,1.40
2019-03-16T18:17:15.514Z,1.70
2019-03-16T18:19:45.407Z,1.73
2019-03-16T18:22:15.306Z,1.87
2019-03-16T18:24:45.237Z,1.43
2019-03-16T18:27:15.289Z,1.80
2019-03-16T18:29:45.567Z,1.70
2019-03-16T18:32:15.558Z,1.70
2019-03-16T18:34:45.655Z,1.80
2019-03-16T18:37:15.654Z,1.80
2019-03-16T18:39:45.630Z,1.50
2019-03-16T18:42:15.539Z,1.67
2019-03-16T18:44:45.538Z,1.50
2019-03-16T18:47:15.476Z,1.50
2019-03-16T18:49:45.362Z,1.60
2019-03-16T18:52:15.295Z,1.40
2019-03-16T18:54:45.255Z,1.40
2019-03-16T18:57:15.226Z,1.20
2019-03-16T18:59:45.104Z,1.23
2019-03-16T19:02:20.637Z,1.20
2019-03-16T19:04:46.661Z,1.00
2019-03-16T19:07:16.554Z,1.23
2019-03-16T19:09:46.544Z,1.20
2019-03-16T19:12:16.430Z,1.17
2019-03-16T19:14:46.324Z,1.10
2019-03-16T19:17:16.267Z,1.30
2019-03-16T19:19:46.260Z,1.17
2019-03-16T19:22:16.184Z,1.07
2019-03-16T19:24:46.127Z,1.20
2019-03-16T19:27:18.990Z,1.40
2019-03-16T19:29:48.150Z,1.40
2019-03-16T19:32:18.111Z,1.17
2019-03-16T19:34:47.991Z,1.50
2019-03-16T19:37:17.909Z,1.53
2019-03-16T19:39:47.916Z,1.40
2019-03-16T19:42:17.824Z,1.30
2019-03-16T19:44:47.710Z,1.40
2019-03-16T19:47:17.667Z,1.37
2019-03-16T19:49:47.588Z,1.47
2019-03-16T19:52:17.493Z,1.53
2019-03-16T19:54:47.535Z,1.70
2019-03-16T19:57:17.689Z,1.77
2019-03-16T19:59:47.630Z,1.70
2019-03-16T20:02:17.609Z,1.53
2019-03-16T20:04:47.510Z,1.40
2019-03-16T20:07:19.432Z,1.53
2019-03-16T20:09:49.035Z,2.00
2019-03-16T20:12:18.933Z,1.90
2019-03-16T20:14:48.845Z,1.90
2019-03-16T20:17:18.861Z,1.70
2019-03-16T20:19:48.773Z,1.90
2019-03-16T20:22:18.724Z,1.70
2019-03-16T20:24:48.667Z,2.33
2019-03-16T20:27:18.567Z,2.27
2019-03-16T20:29:48.481Z,2.03
2019-03-16T20:32:19.012Z,2.20
2019-03-16T20:34:48.923Z,2.33
2019-03-16T20:37:18.873Z,2.20
2019-03-16T20:39:48.871Z,2.00
2019-03-16T20:42:18.730Z,2.10
2019-03-16T20:44:48.636Z,1.87
2019-03-16T20:47:18.993Z,1.60
2019-03-16T20:49:48.885Z,1.83
2019-03-16T20:52:18.782Z,2.10
2019-03-16T20:54:48.776Z,1.80
2019-03-16T20:57:18.730Z,1.73
2019-03-16T20:59:48.647Z,1.80
2019-03-16T21:02:18.710Z,1.70
2019-03-16T21:04:48.632Z,1.80
2019-03-16T21:07:18.533Z,1.67
2019-03-16T21:09:48.497Z,1.63
2019-03-16T21:12:18.377Z,1.50
2019-03-16T21:14:48.275Z,1.70
2019-03-16T21:17:18.629Z,1.30
2019-03-16T21:19:48.580Z,1.30
2019-03-16T21:22:18.502Z,1.40
2019-03-16T21:24:48.401Z,1.20
2019-03-16T21:27:18.302Z,1.10
2019-03-16T21:29:48.268Z,1.00
2019-03-16T21:32:18.244Z,1.00
2019-03-16T21:34:48.182Z,1.00
2019-03-16T21:37:18.050Z,1.00
2019-03-16T21:39:48.025Z,1.10
2019-03-16T21:42:17.948Z,1.13
2019-03-16T21:44:47.878Z,1.00
2019-03-16T21:47:17.822Z,0.80
2019-03-16T21:49:48.108Z,1.10
2019-03-16T21:52:18.017Z,1.00
2019-03-16T21:54:47.968Z,0.90
2019-03-16T21:57:17.959Z,1.00
2019-03-16T21:59:47.921Z,1.00
2019-03-16T22:02:17.825Z,0.70
2019-03-16T22:04:48.092Z,0.97
2019-03-16T22:07:18.065Z,0.87
2019-03-16T22:09:48.001Z,0.57
2019-03-16T22:12:18.204Z,0.90
2019-03-16T22:14:48.144Z,0.90
2019-03-16T22:17:18.076Z,0.90
2019-03-16T22:19:48.847Z,0.90
2019-03-16T22:22:18.785Z,1.20
2019-03-16T22:24:48.736Z,1.13
2019-03-16T22:27:18.677Z,1.30
2019-03-16T22:29:48.561Z,1.00
2019-03-16T22:32:18.513Z,1.00
2019-03-16T22:34:48.751Z,0.90
2019-03-16T22:37:18.690Z,1.00
2019-03-16T22:39:48.697Z,1.10
2019-03-16T22:42:18.583Z,1.20
2019-03-16T22:44:48.459Z,0.87
2019-03-16T22:47:18.393Z,0.90
2019-03-16T22:49:48.806Z,1.00
2019-03-16T22:52:18.702Z,1.00
2019-03-16T22:54:48.652Z,1.00
2019-03-16T22:57:18.628Z,1.10
2019-03-16T22:59:48.596Z,0.83
2019-03-16T23:02:18.708Z,0.80
2019-03-16T23:04:48.740Z,0.87
2019-03-16T23:07:18.636Z,0.90
2019-03-16T23:09:48.663Z,0.80
2019-03-16T23:12:18.598Z,1.00
2019-03-16T23:14:48.509Z,0.80
2019-03-16T23:17:18.524Z,0.80
2019-03-16T23:19:48.439Z,0.87
2019-03-16T23:22:18.521Z,0.60
2019-03-16T23:24:48.450Z,0.50
2019-03-16T23:27:18.429Z,0.60
2019-03-16T23:29:48.347Z,0.53
2019-03-16T23:32:18.312Z,0.70
2019-03-16T23:34:48.215Z,0.70
2019-03-16T23:37:18.480Z,0.47
2019-03-16T23:39:48.422Z,0.37
2019-03-16T23:42:18.647Z,0.50
2019-03-16T23:44:48.583Z,0.53
2019-03-16T23:47:18.491Z,0.60
2019-03-16T23:49:48.399Z,0.47
2019-03-16T23:52:19.106Z,0.40
2019-03-16T23:54:49.046Z,0.40
2019-03-16T23:57:19.016Z,0.30
2019-03-16T23:59:49.046Z,0.30
